createdAt,value
2023-03-21T00:01:03.497Z,6.50
2023-03-21T00:16:13.886Z,6.90
2023-03-21T00:31:09.938Z,7.50
2023-03-21T00:46:09.952Z,7.50
2023-03-21T01:01:10.736Z,6.80
2023-03-21T01:16:11.138Z,9.20
2023-03-21T01:31:11.745Z,11.10
2023-03-21T01:46:12.758Z,11.30
2023-03-21T02:01:13.035Z,13.40
2023-03-21T02:16:13.507Z,14.20
2023-03-21T02:31:14.549Z,14.40
2023-03-21T02:46:15.988Z,16.70
2023-03-21T03:01:17.346Z,18.40
2023-03-21T03:16:17.997Z,21.90
2023-03-21T03:31:20.785Z,21.10
2023-03-21T03:46:21.401Z,21.80
2023-03-21T04:01:21.663Z,25.20
2023-03-21T04:16:22.256Z,23.30
2023-03-21T04:31:26.001Z,24.40
2023-03-21T04:46:26.636Z,24.40
2023-03-21T05:01:27.519Z,24.80
2023-03-21T05:16:28.522Z,23.10
2023-03-21T05:31:29.320Z,28.20
2023-03-21T05:46:29.585Z,26.40
2023-03-21T06:01:30.146Z,26.80
2023-03-21T06:16:30.406Z,26.00
2023-03-21T06:31:30.679Z,27.00
2023-03-21T06:46:30.819Z,24.50
2023-03-21T07:01:31.151Z,27.30
2023-03-21T07:16:31.177Z,27.80
2023-03-21T07:31:31.877Z,28.60
2023-03-21T07:46:32.537Z,28.50
2023-03-21T08:01:32.749Z,29.00
2023-03-21T08:16:32.946Z,26.80
2023-03-21T08:31:33.207Z,28.90
2023-03-21T08:46:33.461Z,26.80
2023-03-21T09:01:33.838Z,23.90
2023-03-21T09:16:34.057Z,23.10
2023-03-21T09:31:34.626Z,22.60
2023-03-21T09:46:36.045Z,23.50
2023-03-21T10:01:36.986Z,21.10
2023-03-21T10:16:37.516Z,20.00
2023-03-21T10:31:37.525Z,19.70
2023-03-21T10:46:38.820Z,18.10
2023-03-21T11:01:40.013Z,18.20
2023-03-21T11:16:41.030Z,16.50
2023-03-21T11:31:41.662Z,15.00
2023-03-21T11:46:42.441Z,14.30
2023-03-21T12:01:43.293Z,13.00
2023-03-21T12:16:44.334Z,15.70
2023-03-21T12:31:46.057Z,13.50
2023-03-21T12:46:47.136Z,13.40
2023-03-21T13:01:47.807Z,11.60
2023-03-21T13:16:48.503Z,10.70
2023-03-21T13:31:52.448Z,10.50
2023-03-21T13:46:54.516Z,8.70
2023-03-21T14:01:55.336Z,9.10
2023-03-21T14:16:55.576Z,10.40
2023-03-21T14:31:56.406Z,10.20
2023-03-21T14:46:56.248Z,8.70
2023-03-21T15:01:56.837Z,11.90
2023-03-21T15:16:57.421Z,8.40
2023-03-21T15:31:57.448Z,7.90
2023-03-21T15:46:58.226Z,7.20
2023-03-21T16:01:58.721Z,9.10
2023-03-21T16:16:59.388Z,8.80
2023-03-21T16:32:00.877Z,9.90
2023-03-21T16:47:02.655Z,9.40
2023-03-21T17:02:03.391Z,10.40
2023-03-21T17:17:03.677Z,11.10
2023-03-21T17:32:03.804Z,10.60
2023-03-21T17:47:04.692Z,10.10
2023-03-21T18:02:04.867Z,10.90
2023-03-21T18:17:04.870Z,11.50
2023-03-21T18:32:07.352Z,10.40
2023-03-21T18:47:08.929Z,17.60
2023-03-21T19:02:10.479Z,15.60
2023-03-21T19:18:21.853Z,20.70
2023-03-21T19:32:17.112Z,17.20
2023-03-21T19:47:19.609Z,17.50
2023-03-21T20:02:35.028Z,21.50
2023-03-21T20:17:26.850Z,18.40
2023-03-21T20:32:27.311Z,21.40
2023-03-21T20:47:26.995Z,18.50
2023-03-21T21:02:27.679Z,20.20
2023-03-21T21:17:54.493Z,23.00
2023-03-21T21:32:33.791Z,24.00
2023-03-21T21:47:33.897Z,25.70
2023-03-21T22:02:34.458Z,24.30
2023-03-21T22:17:34.510Z,25.20
2023-03-21T22:32:35.085Z,24.40
2023-03-21T22:47:35.327Z,28.50
2023-03-21T23:02:35.682Z,32.60
2023-03-21T23:17:36.268Z,33.00
2023-03-21T23:32:37.364Z,34.00
2023-03-21T23:47:38.593Z,32.10
